sensor_id;sensor_type;location;lat;lon;timestamp;P1;durP1;ratioP1;P2;durP2;ratioP2
28174;SDS011;59417;44.788;10.334;2022-07-23T00:00:49;12.30;;;9.02;;
28174;SDS011;59417;44.788;10.334;2022-07-23T00:03:15;11.25;;;8.20;;
28174;SDS011;59417;44.788;10.334;2022-07-23T00:05:41;13.07;;;8.18;;
28174;SDS011;59417;44.788;10.334;2022-07-23T00:08:06;11.05;;;8.88;;
28174;SDS011;59417;44.788;10.334;2022-07-23T00:10:33;10.18;;;8.00;;
28174;SDS011;59417;44.788;10.334;2022-07-23T00:12:59;10.35;;;8.32;;
28174;SDS011;59417;44.788;10.334;2022-07-23T00:15:24;10.27;;;7.93;;
28174;SDS011;59417;44.788;10.334;2022-07-23T00:17:50;9.88;;;8.18;;
28174;SDS011;59417;44.788;10.334;2022-07-23T00:20:16;12.45;;;8.88;;
28174;SDS011;59417;44.788;10.334;2022-07-23T00:22:46;13.80;;;8.38;;
28174;SDS011;59417;44.788;10.334;2022-07-23T00:25:21;12.52;;;8.63;;
28174;SDS011;59417;44.788;10.334;2022-07-23T00:27:48;11.07;;;8.75;;
28174;SDS011;59417;44.788;10.334;2022-07-23T00:30:23;12.20;;;8.25;;
28174;SDS011;59417;44.788;10.334;2022-07-23T00:32:49;10.50;;;8.13;;
28174;SDS011;59417;44.788;10.334;2022-07-23T00:35:19;13.88;;;8.68;;
28174;SDS011;59417;44.788;10.334;2022-07-23T00:37:46;10.40;;;8.90;;
28174;SDS011;59417;44.788;10.334;2022-07-23T00:40:12;13.35;;;8.75;;
28174;SDS011;59417;44.788;10.334;2022-07-23T00:42:38;11.82;;;9.13;;
28174;SDS011;59417;44.788;10.334;2022-07-23T00:45:08;11.52;;;8.80;;
28174;SDS011;59417;44.788;10.334;2022-07-23T00:47:34;9.73;;;8.43;;
28174;SDS011;59417;44.788;10.334;2022-07-23T00:50:00;13.95;;;8.27;;
28174;SDS011;59417;44.788;10.334;2022-07-23T00:52:29;13.80;;;9.27;;
28174;SDS011;59417;44.788;10.334;2022-07-23T00:54:55;16.48;;;8.48;;
28174;SDS011;59417;44.788;10.334;2022-07-23T00:57:21;12.93;;;8.65;;
28174;SDS011;59417;44.788;10.334;2022-07-23T00:59:47;10.27;;;8.43;;
28174;SDS011;59417;44.788;10.334;2022-07-23T01:02:12;11.63;;;9.18;;
28174;SDS011;59417;44.788;10.334;2022-07-23T01:04:41;14.90;;;8.25;;
28174;SDS011;59417;44.788;10.334;2022-07-23T01:07:06;8.60;;;7.57;;
28174;SDS011;59417;44.788;10.334;2022-07-23T01:09:32;8.93;;;7.38;;
28174;SDS011;59417;44.788;10.334;2022-07-23T01:11:58;9.65;;;8.32;;
28174;SDS011;59417;44.788;10.334;2022-07-23T01:14:25;11.20;;;8.73;;
28174;SDS011;59417;44.788;10.334;2022-07-23T01:16:50;14.13;;;8.25;;
28174;SDS011;59417;44.788;10.334;2022-07-23T01:19:16;9.77;;;8.07;;
28174;SDS011;59417;44.788;10.334;2022-07-23T01:21:43;10.32;;;7.70;;
28174;SDS011;59417;44.788;10.334;2022-07-23T01:24:11;11.03;;;8.27;;
28174;SDS011;59417;44.788;10.334;2022-07-23T01:26:43;13.82;;;7.63;;
28174;SDS011;59417;44.788;10.334;2022-07-23T01:29:10;10.52;;;8.57;;
28174;SDS011;59417;44.788;10.334;2022-07-23T01:31:37;11.85;;;8.25;;
28174;SDS011;59417;44.788;10.334;2022-07-23T01:34:03;10.98;;;8.38;;
28174;SDS011;59417;44.788;10.334;2022-07-23T01:36:30;10.68;;;8.25;;
28174;SDS011;59417;44.788;10.334;2022-07-23T01:38:56;11.93;;;8.63;;
28174;SDS011;59417;44.788;10.334;2022-07-23T01:41:21;12.05;;;8.02;;
28174;SDS011;59417;44.788;10.334;2022-07-23T01:43:47;21.42;;;9.23;;
28174;SDS011;59417;44.788;10.334;2022-07-23T01:46:13;9.82;;;8.80;;
28174;SDS011;59417;44.788;10.334;2022-07-23T01:48:43;12.13;;;8.27;;
28174;SDS011;59417;44.788;10.334;2022-07-23T01:51:43;11.43;;;8.52;;
28174;SDS011;59417;44.788;10.334;2022-07-23T01:54:30;8.85;;;7.70;;
28174;SDS011;59417;44.788;10.334;2022-07-23T01:56:58;13.15;;;9.00;;
28174;SDS011;59417;44.788;10.334;2022-07-23T01:59:26;11.38;;;7.75;;
28174;SDS011;59417;44.788;10.334;2022-07-23T02:01:52;10.10;;;8.13;;
28174;SDS011;59417;44.788;10.334;2022-07-23T02:04:18;9.80;;;8.40;;
28174;SDS011;59417;44.788;10.334;2022-07-23T02:06:48;13.10;;;8.80;;
28174;SDS011;59417;44.788;10.334;2022-07-23T02:09:14;10.88;;;8.27;;
28174;SDS011;59417;44.788;10.334;2022-07-23T02:11:40;10.90;;;7.93;;
28174;SDS011;59417;44.788;10.334;2022-07-23T02:14:06;13.50;;;8.40;;
28174;SDS011;59417;44.788;10.334;2022-07-23T02:16:32;11.00;;;7.75;;
28174;SDS011;59417;44.788;10.334;2022-07-23T02:19:01;12.63;;;8.52;;
28174;SDS011;59417;44.788;10.334;2022-07-23T02:21:27;13.18;;;8.02;;
28174;SDS011;59417;44.788;10.334;2022-07-23T02:23:53;9.40;;;7.72;;
28174;SDS011;59417;44.788;10.334;2022-07-23T02:26:19;11.63;;;7.85;;
28174;SDS011;59417;44.788;10.334;2022-07-23T02:28:46;8.00;;;7.20;;
28174;SDS011;59417;44.788;10.334;2022-07-23T02:31:12;9.07;;;7.25;;
28174;SDS011;59417;44.788;10.334;2022-07-23T02:33:38;13.93;;;7.47;;
28174;SDS011;59417;44.788;10.334;2022-07-23T02:36:04;9.70;;;7.82;;
28174;SDS011;59417;44.788;10.334;2022-07-23T02:38:30;10.20;;;7.43;;
28174;SDS011;59417;44.788;10.334;2022-07-23T02:40:56;10.25;;;7.25;;
28174;SDS011;59417;44.788;10.334;2022-07-23T02:43:22;8.50;;;6.70;;
28174;SDS011;59417;44.788;10.334;2022-07-23T02:45:47;13.15;;;7.38;;
28174;SDS011;59417;44.788;10.334;2022-07-23T02:48:13;12.60;;;6.90;;
28174;SDS011;59417;44.788;10.334;2022-07-23T02:50:42;10.00;;;7.13;;
28174;SDS011;59417;44.788;10.334;2022-07-23T02:53:08;8.18;;;6.85;;
28174;SDS011;59417;44.788;10.334;2022-07-23T02:55:34;9.20;;;7.03;;
28174;SDS011;59417;44.788;10.334;2022-07-23T02:58:01;13.45;;;6.78;;
28174;SDS011;59417;44.788;10.334;2022-07-23T03:00:27;8.93;;;7.13;;
28174;SDS011;59417;44.788;10.334;2022-07-23T03:02:53;11.68;;;6.88;;
28174;SDS011;59417;44.788;10.334;2022-07-23T03:05:19;9.90;;;6.90;;
28174;SDS011;59417;44.788;10.334;2022-07-23T03:07:44;9.43;;;6.57;;
28174;SDS011;59417;44.788;10.334;2022-07-23T03:10:10;9.13;;;6.60;;
28174;SDS011;59417;44.788;10.334;2022-07-23T03:12:35;8.27;;;6.22;;
28174;SDS011;59417;44.788;10.334;2022-07-23T03:15:02;13.57;;;6.70;;
28174;SDS011;59417;44.788;10.334;2022-07-23T03:17:28;9.25;;;6.93;;
28174;SDS011;59417;44.788;10.334;2022-07-23T03:19:53;13.00;;;6.57;;
28174;SDS011;59417;44.788;10.334;2022-07-23T03:22:19;11.93;;;7.15;;
28174;SDS011;59417;44.788;10.334;2022-07-23T03:24:44;11.10;;;7.45;;
28174;SDS011;59417;44.788;10.334;2022-07-23T03:27:22;8.32;;;6.72;;
28174;SDS011;59417;44.788;10.334;2022-07-23T03:29:52;9.88;;;6.68;;
28174;SDS011;59417;44.788;10.334;2022-07-23T03:32:19;8.82;;;6.47;;
28174;SDS011;59417;44.788;10.334;2022-07-23T03:34:45;9.57;;;7.00;;
28174;SDS011;59417;44.788;10.334;2022-07-23T03:37:11;11.18;;;7.07;;
28174;SDS011;59417;44.788;10.334;2022-07-23T03:39:38;11.35;;;6.68;;
28174;SDS011;59417;44.788;10.334;2022-07-23T03:42:07;10.15;;;6.38;;
28174;SDS011;59417;44.788;10.334;2022-07-23T03:44:33;9.43;;;6.30;;
28174;SDS011;59417;44.788;10.334;2022-07-23T03:47:01;10.20;;;6.45;;
28174;SDS011;59417;44.788;10.334;2022-07-23T03:49:46;7.78;;;6.43;;
28174;SDS011;59417;44.788;10.334;2022-07-23T03:52:11;9.45;;;7.20;;
28174;SDS011;59417;44.788;10.334;2022-07-23T03:54:37;12.55;;;6.70;;
28174;SDS011;59417;44.788;10.334;2022-07-23T03:57:03;10.15;;;6.38;;
28174;SDS011;59417;44.788;10.334;2022-07-23T03:59:29;9.10;;;6.53;;
28174;SDS011;59417;44.788;10.334;2022-07-23T04:01:54;8.05;;;6.07;;
28174;SDS011;59417;44.788;10.334;2022-07-23T04:04:20;13.57;;;6.05;;
28174;SDS011;59417;44.788;10.334;2022-07-23T04:06:46;7.60;;;6.25;;
28174;SDS011;59417;44.788;10.334;2022-07-23T04:09:13;7.68;;;6.60;;
28174;SDS011;59417;44.788;10.334;2022-07-23T04:11:40;8.73;;;6.20;;
28174;SDS011;59417;44.788;10.334;2022-07-23T04:14:18;12.43;;;6.22;;
28174;SDS011;59417;44.788;10.334;2022-07-23T04:16:45;10.20;;;6.50;;
28174;SDS011;59417;44.788;10.334;2022-07-23T04:19:11;13.90;;;6.60;;
28174;SDS011;59417;44.788;10.334;2022-07-23T04:21:49;24.02;;;7.68;;
28174;SDS011;59417;44.788;10.334;2022-07-23T04:24:15;19.33;;;7.40;;
28174;SDS011;59417;44.788;10.334;2022-07-23T04:26:41;20.30;;;7.15;;
28174;SDS011;59417;44.788;10.334;2022-07-23T04:29:10;23.52;;;8.40;;
28174;SDS011;59417;44.788;10.334;2022-07-23T04:31:41;17.85;;;7.30;;
28174;SDS011;59417;44.788;10.334;2022-07-23T04:34:06;10.25;;;6.30;;
28174;SDS011;59417;44.788;10.334;2022-07-23T04:36:32;14.73;;;7.53;;
28174;SDS011;59417;44.788;10.334;2022-07-23T04:38:58;12.90;;;7.22;;
28174;SDS011;59417;44.788;10.334;2022-07-23T04:41:24;7.90;;;6.90;;
28174;SDS011;59417;44.788;10.334;2022-07-23T04:43:50;12.20;;;6.85;;
28174;SDS011;59417;44.788;10.334;2022-07-23T04:46:16;10.85;;;6.30;;
28174;SDS011;59417;44.788;10.334;2022-07-23T04:48:46;8.50;;;6.28;;
28174;SDS011;59417;44.788;10.334;2022-07-23T04:51:19;9.32;;;6.50;;
28174;SDS011;59417;44.788;10.334;2022-07-23T04:53:45;11.88;;;6.38;;
28174;SDS011;59417;44.788;10.334;2022-07-23T04:56:11;12.43;;;6.93;;
28174;SDS011;59417;44.788;10.334;2022-07-23T04:58:37;9.55;;;6.15;;
28174;SDS011;59417;44.788;10.334;2022-07-23T05:01:03;10.20;;;6.60;;
28174;SDS011;59417;44.788;10.334;2022-07-23T05:03:32;6.68;;;5.97;;
28174;SDS011;59417;44.788;10.334;2022-07-23T05:05:58;11.52;;;6.72;;
28174;SDS011;59417;44.788;10.334;2022-07-23T05:08:24;10.77;;;6.25;;
28174;SDS011;59417;44.788;10.334;2022-07-23T05:10:53;7.95;;;6.10;;
28174;SDS011;59417;44.788;10.334;2022-07-23T05:13:20;11.63;;;6.85;;
28174;SDS011;59417;44.788;10.334;2022-07-23T05:15:45;14.93;;;6.90;;
28174;SDS011;59417;44.788;10.334;2022-07-23T05:18:12;10.00;;;6.80;;
28174;SDS011;59417;44.788;10.334;2022-07-23T05:20:38;8.88;;;6.55;;
28174;SDS011;59417;44.788;10.334;2022-07-23T05:23:04;14.68;;;7.03;;
28174;SDS011;59417;44.788;10.334;2022-07-23T05:25:30;14.10;;;6.93;;
28174;SDS011;59417;44.788;10.334;2022-07-23T05:27:56;10.40;;;6.18;;
28174;SDS011;59417;44.788;10.334;2022-07-23T05:30:21;11.55;;;6.78;;
28174;SDS011;59417;44.788;10.334;2022-07-23T05:35:17;14.35;;;7.35;;
28174;SDS011;59417;44.788;10.334;2022-07-23T05:37:53;12.95;;;6.72;;
28174;SDS011;59417;44.788;10.334;2022-07-23T05:40:19;18.73;;;8.18;;
28174;SDS011;59417;44.788;10.334;2022-07-23T05:42:45;9.27;;;6.97;;
28174;SDS011;59417;44.788;10.334;2022-07-23T05:45:11;11.32;;;6.18;;
28174;SDS011;59417;44.788;10.334;2022-07-23T05:47:43;10.07;;;7.35;;
28174;SDS011;59417;44.788;10.334;2022-07-23T05:50:13;11.30;;;7.30;;
28174;SDS011;59417;44.788;10.334;2022-07-23T05:52:44;9.02;;;6.43;;
28174;SDS011;59417;44.788;10.334;2022-07-23T05:55:28;9.25;;;6.65;;
28174;SDS011;59417;44.788;10.334;2022-07-23T05:57:57;9.35;;;6.70;;
28174;SDS011;59417;44.788;10.334;2022-07-23T06:00:26;16.80;;;6.43;;
28174;SDS011;59417;44.788;10.334;2022-07-23T06:02:52;8.57;;;6.82;;
28174;SDS011;59417;44.788;10.334;2022-07-23T06:05:18;9.35;;;6.22;;
28174;SDS011;59417;44.788;10.334;2022-07-23T06:07:45;9.63;;;6.53;;
28174;SDS011;59417;44.788;10.334;2022-07-23T06:10:14;14.75;;;7.45;;
28174;SDS011;59417;44.788;10.334;2022-07-23T06:12:41;10.23;;;6.88;;
28174;SDS011;59417;44.788;10.334;2022-07-23T06:15:13;10.93;;;6.55;;
28174;SDS011;59417;44.788;10.334;2022-07-23T06:17:45;10.27;;;6.47;;
28174;SDS011;59417;44.788;10.334;2022-07-23T06:20:11;8.10;;;6.88;;
28174;SDS011;59417;44.788;10.334;2022-07-23T06:22:38;8.65;;;6.10;;
28174;SDS011;59417;44.788;10.334;2022-07-23T06:25:04;14.65;;;7.40;;
28174;SDS011;59417;44.788;10.334;2022-07-23T06:27:31;12.23;;;6.63;;
28174;SDS011;59417;44.788;10.334;2022-07-23T06:29:59;11.57;;;7.15;;
28174;SDS011;59417;44.788;10.334;2022-07-23T06:32:28;9.10;;;6.43;;
28174;SDS011;59417;44.788;10.334;2022-07-23T06:34:54;11.85;;;7.13;;
28174;SDS011;59417;44.788;10.334;2022-07-23T06:37:22;14.55;;;7.40;;
28174;SDS011;59417;44.788;10.334;2022-07-23T06:39:57;12.80;;;7.10;;
28174;SDS011;59417;44.788;10.334;2022-07-23T06:42:23;8.40;;;6.95;;
28174;SDS011;59417;44.788;10.334;2022-07-23T06:45:07;10.82;;;7.32;;
28174;SDS011;59417;44.788;10.334;2022-07-23T06:47:37;11.75;;;7.00;;
28174;SDS011;59417;44.788;10.334;2022-07-23T06:50:03;10.18;;;6.32;;
28174;SDS011;59417;44.788;10.334;2022-07-23T06:52:30;11.80;;;6.28;;
28174;SDS011;59417;44.788;10.334;2022-07-23T06:55:04;9.23;;;6.50;;
28174;SDS011;59417;44.788;10.334;2022-07-23T06:57:30;13.63;;;6.38;;
28174;SDS011;59417;44.788;10.334;2022-07-23T06:59:56;9.68;;;6.35;;
28174;SDS011;59417;44.788;10.334;2022-07-23T07:02:21;11.93;;;6.68;;
28174;SDS011;59417;44.788;10.334;2022-07-23T07:04:47;10.27;;;6.78;;
28174;SDS011;59417;44.788;10.334;2022-07-23T07:07:19;12.43;;;7.78;;
28174;SDS011;59417;44.788;10.334;2022-07-23T07:09:44;9.65;;;6.70;;
28174;SDS011;59417;44.788;10.334;2022-07-23T07:12:10;13.63;;;6.97;;
28174;SDS011;59417;44.788;10.334;2022-07-23T07:14:37;14.00;;;7.57;;
28174;SDS011;59417;44.788;10.334;2022-07-23T07:17:03;12.98;;;6.65;;
28174;SDS011;59417;44.788;10.334;2022-07-23T07:19:31;10.63;;;6.93;;
28174;SDS011;59417;44.788;10.334;2022-07-23T07:21:57;10.98;;;7.47;;
28174;SDS011;59417;44.788;10.334;2022-07-23T07:24:22;12.23;;;7.68;;
28174;SDS011;59417;44.788;10.334;2022-07-23T07:26:48;11.80;;;7.45;;
28174;SDS011;59417;44.788;10.334;2022-07-23T07:29:14;15.93;;;7.93;;
28174;SDS011;59417;44.788;10.334;2022-07-23T07:31:39;13.70;;;7.20;;
28174;SDS011;59417;44.788;10.334;2022-07-23T07:34:05;12.43;;;7.68;;
28174;SDS011;59417;44.788;10.334;2022-07-23T07:36:31;20.33;;;8.63;;
28174;SDS011;59417;44.788;10.334;2022-07-23T07:38:57;13.18;;;9.52;;
28174;SDS011;59417;44.788;10.334;2022-07-23T07:41:23;12.50;;;9.07;;
28174;SDS011;59417;44.788;10.334;2022-07-23T07:43:51;14.35;;;8.25;;
28174;SDS011;59417;44.788;10.334;2022-07-23T07:46:16;12.98;;;8.13;;
28174;SDS011;59417;44.788;10.334;2022-07-23T07:48:42;15.70;;;8.85;;
28174;SDS011;59417;44.788;10.334;2022-07-23T07:51:08;17.52;;;9.43;;
28174;SDS011;59417;44.788;10.334;2022-07-23T07:53:35;16.75;;;8.65;;
28174;SDS011;59417;44.788;10.334;2022-07-23T07:56:00;16.98;;;9.93;;
28174;SDS011;59417;44.788;10.334;2022-07-23T07:58:29;28.33;;;10.05;;
28174;SDS011;59417;44.788;10.334;2022-07-23T08:00:54;16.20;;;9.15;;
28174;SDS011;59417;44.788;10.334;2022-07-23T08:03:20;16.48;;;10.02;;
28174;SDS011;59417;44.788;10.334;2022-07-23T08:05:45;13.45;;;9.40;;
28174;SDS011;59417;44.788;10.334;2022-07-23T08:08:11;16.02;;;9.82;;
28174;SDS011;59417;44.788;10.334;2022-07-23T08:10:40;14.68;;;8.55;;
28174;SDS011;59417;44.788;10.334;2022-07-23T08:13:06;16.55;;;10.10;;
28174;SDS011;59417;44.788;10.334;2022-07-23T08:15:31;16.08;;;10.40;;
28174;SDS011;59417;44.788;10.334;2022-07-23T08:17:57;15.88;;;10.35;;
28174;SDS011;59417;44.788;10.334;2022-07-23T08:20:23;16.58;;;10.25;;
28174;SDS011;59417;44.788;10.334;2022-07-23T08:22:53;13.95;;;10.90;;
28174;SDS011;59417;44.788;10.334;2022-07-23T08:25:25;16.13;;;10.13;;
28174;SDS011;59417;44.788;10.334;2022-07-23T08:27:58;16.17;;;10.48;;
28174;SDS011;59417;44.788;10.334;2022-07-23T08:30:25;11.15;;;9.63;;
28174;SDS011;59417;44.788;10.334;2022-07-23T08:32:53;17.88;;;10.00;;
28174;SDS011;59417;44.788;10.334;2022-07-23T08:35:32;14.90;;;10.93;;
28174;SDS011;59417;44.788;10.334;2022-07-23T08:38:00;14.85;;;10.65;;
28174;SDS011;59417;44.788;10.334;2022-07-23T08:40:28;13.20;;;10.23;;
28174;SDS011;59417;44.788;10.334;2022-07-23T08:42:55;15.25;;;10.80;;
28174;SDS011;59417;44.788;10.334;2022-07-23T08:45:22;18.23;;;10.95;;
28174;SDS011;59417;44.788;10.334;2022-07-23T08:47:51;16.27;;;10.60;;
28174;SDS011;59417;44.788;10.334;2022-07-23T08:50:18;12.30;;;10.15;;
28174;SDS011;59417;44.788;10.334;2022-07-23T08:52:45;18.52;;;10.60;;
28174;SDS011;59417;44.788;10.334;2022-07-23T08:55:12;13.43;;;10.27;;
28174;SDS011;59417;44.788;10.334;2022-07-23T08:57:37;16.48;;;10.10;;
28174;SDS011;59417;44.788;10.334;2022-07-23T09:00:04;15.27;;;11.00;;
28174;SDS011;59417;44.788;10.334;2022-07-23T09:02:36;16.37;;;11.13;;
28174;SDS011;59417;44.788;10.334;2022-07-23T09:05:04;16.20;;;11.60;;
28174;SDS011;59417;44.788;10.334;2022-07-23T09:07:29;18.40;;;10.45;;
28174;SDS011;59417;44.788;10.334;2022-07-23T09:10:16;11.65;;;10.13;;
28174;SDS011;59417;44.788;10.334;2022-07-23T09:12:41;13.10;;;9.90;;
28174;SDS011;59417;44.788;10.334;2022-07-23T09:15:07;14.50;;;11.55;;
28174;SDS011;59417;44.788;10.334;2022-07-23T09:17:40;17.63;;;10.10;;
28174;SDS011;59417;44.788;10.334;2022-07-23T09:20:11;16.23;;;11.48;;
28174;SDS011;59417;44.788;10.334;2022-07-23T09:22:46;14.57;;;10.30;;
28174;SDS011;59417;44.788;10.334;2022-07-23T09:25:13;15.50;;;10.75;;
28174;SDS011;59417;44.788;10.334;2022-07-23T09:27:49;16.50;;;11.77;;
28174;SDS011;59417;44.788;10.334;2022-07-23T09:30:23;14.95;;;9.95;;
28174;SDS011;59417;44.788;10.334;2022-07-23T09:38:18;14.15;;;10.60;;
28174;SDS011;59417;44.788;10.334;2022-07-23T09:40:45;16.30;;;10.93;;
28174;SDS011;59417;44.788;10.334;2022-07-23T09:43:12;15.52;;;10.63;;
28174;SDS011;59417;44.788;10.334;2022-07-23T09:45:52;13.05;;;10.52;;
28174;SDS011;59417;44.788;10.334;2022-07-23T09:48:18;13.85;;;11.70;;
28174;SDS011;59417;44.788;10.334;2022-07-23T09:50:44;17.33;;;10.60;;
28174;SDS011;59417;44.788;10.334;2022-07-23T09:53:31;18.75;;;11.63;;
28174;SDS011;59417;44.788;10.334;2022-07-23T09:55:56;15.73;;;11.00;;
28174;SDS011;59417;44.788;10.334;2022-07-23T09:58:24;14.68;;;9.73;;
28174;SDS011;59417;44.788;10.334;2022-07-23T10:00:52;13.90;;;10.77;;
28174;SDS011;59417;44.788;10.334;2022-07-23T10:03:18;12.07;;;10.30;;
28174;SDS011;59417;44.788;10.334;2022-07-23T10:06:26;17.73;;;9.95;;
28174;SDS011;59417;44.788;10.334;2022-07-23T10:09:38;19.08;;;10.88;;
28174;SDS011;59417;44.788;10.334;2022-07-23T10:12:31;14.35;;;10.98;;
28174;SDS011;59417;44.788;10.334;2022-07-23T10:15:00;17.92;;;10.55;;
28174;SDS011;59417;44.788;10.334;2022-07-23T10:17:29;13.95;;;10.80;;
28174;SDS011;59417;44.788;10.334;2022-07-23T10:19:55;18.55;;;10.13;;
28174;SDS011;59417;44.788;10.334;2022-07-23T10:22:21;13.32;;;10.35;;
28174;SDS011;59417;44.788;10.334;2022-07-23T10:25:05;15.18;;;10.32;;
28174;SDS011;59417;44.788;10.334;2022-07-23T10:33:30;11.57;;;9.80;;
28174;SDS011;59417;44.788;10.334;2022-07-23T10:41:49;12.90;;;9.63;;
28174;SDS011;59417;44.788;10.334;2022-07-23T10:44:19;12.35;;;9.43;;
28174;SDS011;59417;44.788;10.334;2022-07-23T10:47:04;11.57;;;9.85;;
28174;SDS011;59417;44.788;10.334;2022-07-23T10:49:35;10.95;;;8.95;;
28174;SDS011;59417;44.788;10.334;2022-07-23T10:54:40;11.43;;;9.38;;
28174;SDS011;59417;44.788;10.334;2022-07-23T10:57:10;11.77;;;9.52;;
28174;SDS011;59417;44.788;10.334;2022-07-23T11:02:34;12.15;;;9.05;;
28174;SDS011;59417;44.788;10.334;2022-07-23T11:05:03;12.00;;;9.60;;
28174;SDS011;59417;44.788;10.334;2022-07-23T11:07:32;13.48;;;9.10;;
28174;SDS011;59417;44.788;10.334;2022-07-23T11:09:59;13.00;;;10.40;;
28174;SDS011;59417;44.788;10.334;2022-07-23T11:15:06;14.75;;;9.35;;
28174;SDS011;59417;44.788;10.334;2022-07-23T11:17:57;15.73;;;10.18;;
28174;SDS011;59417;44.788;10.334;2022-07-23T11:20:30;14.02;;;9.50;;
28174;SDS011;59417;44.788;10.334;2022-07-23T11:23:03;10.90;;;9.57;;
28174;SDS011;59417;44.788;10.334;2022-07-23T11:25:33;12.73;;;9.40;;
28174;SDS011;59417;44.788;10.334;2022-07-23T11:28:08;16.17;;;9.85;;
28174;SDS011;59417;44.788;10.334;2022-07-23T11:30:44;9.82;;;8.75;;
28174;SDS011;59417;44.788;10.334;2022-07-23T11:35:46;12.52;;;8.68;;
28174;SDS011;59417;44.788;10.334;2022-07-23T11:38:15;13.02;;;9.57;;
28174;SDS011;59417;44.788;10.334;2022-07-23T11:40:41;11.90;;;9.38;;
28174;SDS011;59417;44.788;10.334;2022-07-23T11:43:10;12.50;;;9.02;;
28174;SDS011;59417;44.788;10.334;2022-07-23T11:45:43;9.93;;;8.93;;
28174;SDS011;59417;44.788;10.334;2022-07-23T11:48:18;12.68;;;9.30;;
28174;SDS011;59417;44.788;10.334;2022-07-23T11:50:49;14.50;;;9.98;;
28174;SDS011;59417;44.788;10.334;2022-07-23T11:53:34;12.38;;;8.77;;
28174;SDS011;59417;44.788;10.334;2022-07-23T11:56:10;11.05;;;9.45;;
28174;SDS011;59417;44.788;10.334;2022-07-23T11:58:36;13.70;;;10.48;;
28174;SDS011;59417;44.788;10.334;2022-07-23T12:01:03;16.40;;;9.82;;
28174;SDS011;59417;44.788;10.334;2022-07-23T12:03:29;12.00;;;9.07;;
28174;SDS011;59417;44.788;10.334;2022-07-23T12:05:58;12.30;;;8.73;;
28174;SDS011;59417;44.788;10.334;2022-07-23T12:08:25;13.15;;;8.90;;
28174;SDS011;59417;44.788;10.334;2022-07-23T12:10:51;14.90;;;9.93;;
28174;SDS011;59417;44.788;10.334;2022-07-23T12:13:17;20.63;;;10.13;;
28174;SDS011;59417;44.788;10.334;2022-07-23T12:15:49;11.68;;;9.70;;
28174;SDS011;59417;44.788;10.334;2022-07-23T12:18:22;13.90;;;9.35;;
28174;SDS011;59417;44.788;10.334;2022-07-23T12:20:51;13.43;;;9.38;;
28174;SDS011;59417;44.788;10.334;2022-07-23T12:23:19;9.80;;;8.90;;
28174;SDS011;59417;44.788;10.334;2022-07-23T12:26:00;12.75;;;8.95;;
28174;SDS011;59417;44.788;10.334;2022-07-23T12:28:27;15.05;;;9.35;;
28174;SDS011;59417;44.788;10.334;2022-07-23T12:30:55;12.50;;;10.23;;
28174;SDS011;59417;44.788;10.334;2022-07-23T12:33:29;14.10;;;10.77;;
28174;SDS011;59417;44.788;10.334;2022-07-23T12:35:56;12.50;;;9.27;;
28174;SDS011;59417;44.788;10.334;2022-07-23T12:38:24;12.05;;;9.65;;
28174;SDS011;59417;44.788;10.334;2022-07-23T12:40:55;14.45;;;10.45;;
28174;SDS011;59417;44.788;10.334;2022-07-23T12:43:28;19.20;;;10.77;;
28174;SDS011;59417;44.788;10.334;2022-07-23T12:46:04;11.50;;;9.90;;
28174;SDS011;59417;44.788;10.334;2022-07-23T12:48:33;12.75;;;9.57;;
28174;SDS011;59417;44.788;10.334;2022-07-23T12:51:24;10.63;;;9.55;;
28174;SDS011;59417;44.788;10.334;2022-07-23T12:56:30;12.88;;;9.98;;
28174;SDS011;59417;44.788;10.334;2022-07-23T13:01:39;21.50;;;11.60;;
28174;SDS011;59417;44.788;10.334;2022-07-23T13:04:09;16.15;;;11.20;;
28174;SDS011;59417;44.788;10.334;2022-07-23T13:06:41;15.27;;;10.52;;
28174;SDS011;59417;44.788;10.334;2022-07-23T13:09:09;17.23;;;11.13;;
28174;SDS011;59417;44.788;10.334;2022-07-23T13:11:42;14.27;;;10.90;;
28174;SDS011;59417;44.788;10.334;2022-07-23T13:14:08;12.07;;;10.65;;
28174;SDS011;59417;44.788;10.334;2022-07-23T13:16:34;13.80;;;10.80;;
28174;SDS011;59417;44.788;10.334;2022-07-23T13:19:00;19.17;;;11.13;;
28174;SDS011;59417;44.788;10.334;2022-07-23T13:21:27;15.27;;;10.60;;
28174;SDS011;59417;44.788;10.334;2022-07-23T13:23:53;13.20;;;10.90;;
28174;SDS011;59417;44.788;10.334;2022-07-23T13:26:19;13.95;;;10.75;;
28174;SDS011;59417;44.788;10.334;2022-07-23T13:28:45;14.25;;;10.57;;
28174;SDS011;59417;44.788;10.334;2022-07-23T13:31:12;13.90;;;10.80;;
28174;SDS011;59417;44.788;10.334;2022-07-23T13:33:38;13.73;;;10.65;;
28174;SDS011;59417;44.788;10.334;2022-07-23T13:36:04;16.85;;;11.23;;
28174;SDS011;59417;44.788;10.334;2022-07-23T13:38:30;16.30;;;11.48;;
28174;SDS011;59417;44.788;10.334;2022-07-23T13:40:56;11.57;;;10.38;;
28174;SDS011;59417;44.788;10.334;2022-07-23T13:43:22;12.95;;;10.35;;
28174;SDS011;59417;44.788;10.334;2022-07-23T13:45:49;13.82;;;10.82;;
28174;SDS011;59417;44.788;10.334;2022-07-23T13:48:16;12.48;;;10.75;;
28174;SDS011;59417;44.788;10.334;2022-07-23T13:50:42;17.88;;;11.50;;
28174;SDS011;59417;44.788;10.334;2022-07-23T13:53:10;17.83;;;11.15;;
28174;SDS011;59417;44.788;10.334;2022-07-23T13:55:37;18.33;;;11.47;;
28174;SDS011;59417;44.788;10.334;2022-07-23T13:58:05;14.23;;;10.35;;
28174;SDS011;59417;44.788;10.334;2022-07-23T14:00:32;14.43;;;11.43;;
28174;SDS011;59417;44.788;10.334;2022-07-23T14:02:59;15.30;;;11.27;;
28174;SDS011;59417;44.788;10.334;2022-07-23T14:05:26;13.75;;;11.43;;
28174;SDS011;59417;44.788;10.334;2022-07-23T14:07:52;15.80;;;10.90;;
28174;SDS011;59417;44.788;10.334;2022-07-23T14:10:18;15.25;;;10.68;;
28174;SDS011;59417;44.788;10.334;2022-07-23T14:12:45;13.15;;;10.90;;
28174;SDS011;59417;44.788;10.334;2022-07-23T14:15:32;13.32;;;10.80;;
28174;SDS011;59417;44.788;10.334;2022-07-23T14:17:58;17.38;;;12.38;;
28174;SDS011;59417;44.788;10.334;2022-07-23T14:20:24;13.80;;;11.15;;
28174;SDS011;59417;44.788;10.334;2022-07-23T14:23:18;14.27;;;10.15;;
28174;SDS011;59417;44.788;10.334;2022-07-23T14:25:44;16.40;;;11.63;;
28174;SDS011;59417;44.788;10.334;2022-07-23T14:28:09;14.27;;;11.68;;
28174;SDS011;59417;44.788;10.334;2022-07-23T14:30:37;20.05;;;10.68;;
28174;SDS011;59417;44.788;10.334;2022-07-23T14:33:03;12.70;;;10.45;;
28174;SDS011;59417;44.788;10.334;2022-07-23T14:35:31;14.07;;;10.60;;
28174;SDS011;59417;44.788;10.334;2022-07-23T14:37:57;16.60;;;10.50;;
28174;SDS011;59417;44.788;10.334;2022-07-23T14:40:23;13.95;;;10.15;;
28174;SDS011;59417;44.788;10.334;2022-07-23T14:42:49;14.65;;;7.72;;
28174;SDS011;59417;44.788;10.334;2022-07-23T14:45:17;12.00;;;7.50;;
28174;SDS011;59417;44.788;10.334;2022-07-23T14:47:43;14.65;;;7.78;;
28174;SDS011;59417;44.788;10.334;2022-07-23T14:50:12;11.52;;;7.20;;
28174;SDS011;59417;44.788;10.334;2022-07-23T14:53:30;14.07;;;7.40;;
28174;SDS011;59417;44.788;10.334;2022-07-23T14:56:02;14.77;;;6.93;;
28174;SDS011;59417;44.788;10.334;2022-07-23T14:58:57;10.85;;;6.80;;
28174;SDS011;59417;44.788;10.334;2022-07-23T15:04:29;10.07;;;6.50;;
28174;SDS011;59417;44.788;10.334;2022-07-23T15:07:01;12.55;;;7.03;;
28174;SDS011;59417;44.788;10.334;2022-07-23T15:09:48;12.18;;;6.60;;